Aviation Digital Data Service (ADDS)

Output produced by METARs form (0056 UTC 22 September 2017)
found at http://www.aviationweather.gov/adds/metars/
 
VGEG 220000Z 00000KT 5000 SCT018 BKN120 27/26 Q1006 NOSIG
TAF VGEG 212300Z 2200/2306 16005KT 4000 HZ SCT015 SCT100 
     BECMG 2206/2208 17008KT 5000 SCT015 BKN100 
     TEMPO 2212/2214 24015G25KT 1500 RA/TSRA BKN008 FEW025CB OVC080 
     BECMG 2214/2216 24008KT 5000 HZ FEW016 SCT100 
     BECMG 2222/2224 15005KT 4000 HZ SCT015 SCT100 
     BECMG 2304/2306 21008KT 4500 SCT015 BKN100